Time;durP1;ratioP1;P1;durP2;ratioP2;P2;SDS_P1;SDS_P2;PMS_P1;PMS_P2;Temp;Humidity;BMP_temperature;BMP_pressure;BME280_temperature;BME280_humidity;BME280_pressure;Samples;Min_cycle;Max_cycle;Signal;HPM_P1;HPM_P2
2022/11/25 00:01:53;;;;;;;;;;;;;;;10.08;47.42;99102.47;4503617;31;34430;-84
2022/11/25 00:04:20;;;;;;;;;;;;;;;9.83;48.93;99101.25;4498249;31;35202;-86
2022/11/25 00:06:47;;;;;;;;;;;;;;;9.96;49.13;99100.56;4498058;31;35327;-84
2022/11/25 00:09:14;;;;;;;;;;;;;;;10.15;49.20;99100.00;4502269;31;34965;-86
2022/11/25 00:11:42;;;;;;;;;;;;;;;10.76;47.51;99091.22;4514008;31;33956;-86
2022/11/25 00:14:11;;;;;;;;;;;;;;;11.33;45.47;99087.47;4514006;31;34047;-86
2022/11/25 00:16:38;;;;;;;;;;;;;;;10.95;46.63;99095.75;4513879;31;33946;-85
2022/11/25 00:19:12;;;;;;;;;;;;;;;11.24;45.74;99090.81;4513173;31;34670;-86
2022/11/25 00:21:39;;;;;;;;;;;;;;;11.26;45.51;99085.66;4513822;31;33949;-86
2022/11/25 00:24:07;;;;;;;;;;;;;;;11.29;45.16;99090.84;4515147;31;33911;-88
2022/11/25 00:26:37;;;;;;;;;;;;;;;11.40;44.81;99097.91;4516050;31;35109;-88
2022/11/25 00:29:05;;;;;;;;;;;;;;;11.52;44.51;99091.94;4515424;31;34880;-86
2022/11/25 00:31:35;;;;;;;;;;;;;;;11.73;43.86;99095.53;4515496;31;33441;-85
2022/11/25 00:34:04;;;;;;;;;;;;;;;11.68;43.73;99108.50;4498941;31;34279;-90
2022/11/25 00:36:31;;;;;;;;;;;;;;;11.60;44.05;99110.19;4499856;31;34044;-85
2022/11/25 00:38:59;;;;;;;;;;;;;;;11.69;43.50;99116.28;4500511;31;34727;-89
2022/11/25 00:47:01;;;;;;;;;;;;;;;11.69;43.29;99111.09;4509734;31;34440;-89
2022/11/25 00:49:28;;;;;;;;;;;;;;;11.68;43.45;99111.97;4507946;31;35030;-89
2022/11/25 00:51:55;;;;;;;;;;;;;;;11.76;43.11;99121.53;4499758;31;33458;-87
2022/11/25 00:54:23;;;;;;;;;;;;;;;11.22;44.41;99123.69;4500324;31;34950;-89
2022/11/25 00:56:50;;;;;;;;;;;;;;;11.62;43.24;99122.28;4474599;31;787259;-86
2022/11/25 00:59:17;;;;;;;;;;;;;;;11.29;44.02;99127.19;4510354;31;34091;-86
2022/11/25 01:01:45;;;;;;;;;;;;;;;11.20;43.92;99126.25;4514650;31;33236;-85
2022/11/25 01:04:12;;;;;;;;;;;;;;;11.14;44.00;99134.00;4515177;31;34312;-87
2022/11/25 01:06:39;;;;;;;;;;;;;;;11.42;43.42;99126.47;4515309;31;34506;-85
2022/11/25 01:09:07;;;;;;;;;;;;;;;11.39;43.48;99131.63;4515264;31;34849;-86
2022/11/25 01:11:34;;;;;;;;;;;;;;;11.48;43.21;99128.22;4515346;31;34140;-89
2022/11/25 01:14:01;;;;;;;;;;;;;;;11.45;43.10;99142.94;4515797;31;34347;-86
2022/11/25 01:16:29;;;;;;;;;;;;;;;11.49;43.11;99143.84;4515599;31;33785;-86
2022/11/25 01:18:57;;;;;;;;;;;;;;;11.36;43.12;99149.75;4514433;31;35078;-89
2022/11/25 01:21:26;;;;;;;;;;;;;;;11.04;43.52;99144.25;4515974;31;33796;-89
2022/11/25 01:23:53;;;;;;;;;;;;;;;11.12;43.42;99143.47;4514485;31;34403;-85
2022/11/25 01:26:21;;;;;;;;;;;;;;;11.04;43.62;99145.13;4515642;31;33758;-89
2022/11/25 01:28:49;;;;;;;;;;;;;;;11.13;43.29;99142.63;4514401;31;34554;-87
2022/11/25 01:31:18;;;;;;;;;;;;;;;10.21;46.07;99143.22;4513889;31;33471;-89
2022/11/25 01:33:45;;;;;;;;;;;;;;;10.50;46.58;99145.38;4507841;31;34717;-87
2022/11/25 01:36:15;;;;;;;;;;;;;;;10.91;45.29;99143.25;4499302;31;34221;-86
2022/11/25 01:38:43;;;;;;;;;;;;;;;10.74;45.14;99139.59;4498906;31;33988;-89
2022/11/25 01:41:11;;;;;;;;;;;;;;;10.78;44.84;99143.97;4508115;31;33596;-87
2022/11/25 01:43:39;;;;;;;;;;;;;;;10.86;44.54;99139.75;4508603;31;34661;-88
2022/11/25 01:46:08;;;;;;;;;;;;;;;10.47;45.21;99141.03;4510683;31;34523;-86
2022/11/25 01:48:42;;;;;;;;;;;;;;;11.00;44.26;99145.97;4503522;31;35093;-85
2022/11/25 01:51:21;;;;;;;;;;;;;;;11.03;44.06;99142.53;4515028;31;33000;-86
2022/11/25 01:53:48;;;;;;;;;;;;;;;11.10;43.70;99149.50;4503586;31;34155;-86
2022/11/25 01:56:16;;;;;;;;;;;;;;;11.04;43.60;99139.94;4502566;31;34216;-88
2022/11/25 01:58:43;;;;;;;;;;;;;;;11.06;43.71;99148.63;4499014;31;34325;-89
2022/11/25 02:01:10;;;;;;;;;;;;;;;10.93;44.23;99142.41;4508251;31;33473;-88
2022/11/25 02:03:41;;;;;;;;;;;;;;;10.58;44.85;99133.38;4497998;31;34389;-88
2022/11/25 02:06:28;;;;;;;;;;;;;;;10.16;46.63;99135.41;4500007;31;34938;-88
2022/11/25 02:09:00;;;;;;;;;;;;;;;10.54;46.01;99135.06;4499465;31;34140;-88
2022/11/25 02:11:27;;;;;;;;;;;;;;;9.08;49.51;99144.00;4498350;31;33131;-89
2022/11/25 02:13:56;;;;;;;;;;;;;;;10.35;46.60;99138.28;4498297;31;33687;-89
2022/11/25 02:16:25;;;;;;;;;;;;;;;10.56;45.85;99145.44;4498160;31;35175;-89
2022/11/25 02:18:52;;;;;;;;;;;;;;;10.37;45.62;99149.50;4499468;31;34865;-87
2022/11/25 02:21:25;;;;;;;;;;;;;;;10.67;45.18;99147.31;4499242;31;33082;-86
2022/11/25 02:24:00;;;;;;;;;;;;;;;11.10;43.74;99144.31;4499423;31;34878;-89
2022/11/25 02:26:28;;;;;;;;;;;;;;;11.09;43.49;99156.41;4499290;31;34364;-86
2022/11/25 02:28:55;;;;;;;;;;;;;;;11.16;43.66;99154.75;4498230;31;35032;-90
2022/11/25 02:31:23;;;;;;;;;;;;;;;11.19;43.28;99150.47;4498309;31;33597;-89
2022/11/25 02:33:50;;;;;;;;;;;;;;;10.89;43.62;99155.34;4497801;31;35102;-89
2022/11/25 02:36:19;;;;;;;;;;;;;;;10.60;44.13;99150.66;4506532;31;35308;-87
2022/11/25 02:38:46;;;;;;;;;;;;;;;10.56;43.99;99154.06;4502618;31;33297;-89
2022/11/25 02:41:17;;;;;;;;;;;;;;;10.59;44.13;99148.94;4499674;31;33052;-90
2022/11/25 02:43:44;;;;;;;;;;;;;;;10.70;43.82;99149.94;4506628;31;35109;-89
2022/11/25 02:46:13;;;;;;;;;;;;;;;9.99;46.54;99142.03;4512903;31;35204;-90
2022/11/25 02:48:48;;;;;;;;;;;;;;;8.95;49.06;99154.13;4514963;31;34987;-87
2022/11/25 02:51:35;;;;;;;;;;;;;;;10.21;46.65;99149.28;4515204;31;32820;-88
2022/11/25 02:54:03;;;;;;;;;;;;;;;10.05;47.12;99152.50;4515110;31;34301;-87
2022/11/25 02:56:31;;;;;;;;;;;;;;;10.51;46.33;99157.47;4507111;31;34083;-85
2022/11/25 02:58:58;;;;;;;;;;;;;;;10.41;45.51;99156.47;4497616;31;33957;-86
2022/11/25 03:01:27;;;;;;;;;;;;;;;10.51;45.25;99163.53;4500011;31;34238;-89
2022/11/25 03:03:54;;;;;;;;;;;;;;;10.52;45.10;99157.50;4498604;31;33656;-86
2022/11/25 03:06:21;;;;;;;;;;;;;;;9.84;48.14;99158.22;4505438;31;33806;-90
2022/11/25 03:08:49;;;;;;;;;;;;;;;9.71;49.71;99151.12;4512595;31;35069;-91
2022/11/25 03:11:16;;;;;;;;;;;;;;;9.82;49.15;99157.34;4505991;31;31997;-88
2022/11/25 03:13:43;;;;;;;;;;;;;;;9.97;48.75;99156.72;4514688;31;34299;-90
2022/11/25 03:16:11;;;;;;;;;;;;;;;10.23;47.99;99152.78;4509725;31;34428;-89
2022/11/25 03:18:38;;;;;;;;;;;;;;;10.14;48.35;99157.81;4514935;31;34163;-86
2022/11/25 03:21:06;;;;;;;;;;;;;;;10.08;49.35;99156.88;4514537;31;33438;-91
2022/11/25 03:23:36;;;;;;;;;;;;;;;9.22;51.50;99164.09;4514729;31;35208;-87
2022/11/25 03:26:04;;;;;;;;;;;;;;;10.05;49.08;99162.87;4513691;31;34965;-88
2022/11/25 03:28:32;;;;;;;;;;;;;;;10.33;48.67;99168.47;4512432;31;34319;-91
2022/11/25 03:30:59;;;;;;;;;;;;;;;10.01;49.09;99170.56;4514561;31;33536;-90
2022/11/25 03:33:28;;;;;;;;;;;;;;;10.05;49.28;99168.03;4507390;31;34268;-88
2022/11/25 03:35:55;;;;;;;;;;;;;;;10.32;47.56;99167.59;4499810;31;34187;-90
2022/11/25 03:38:24;;;;;;;;;;;;;;;9.59;50.12;99180.28;4510396;31;33887;-90
2022/11/25 03:40:51;;;;;;;;;;;;;;;9.83;49.35;99186.69;4511485;31;34185;-86
2022/11/25 03:43:18;;;;;;;;;;;;;;;10.08;49.12;99185.37;4511497;31;34908;-85
2022/11/25 03:45:48;;;;;;;;;;;;;;;10.23;47.51;99180.41;4512023;31;35218;-88
2022/11/25 03:48:15;;;;;;;;;;;;;;;9.82;49.32;99187.53;4502195;31;35003;-87
2022/11/25 03:50:43;;;;;;;;;;;;;;;9.77;50.43;99195.22;4500216;31;33474;-90
2022/11/25 03:53:10;;;;;;;;;;;;;;;9.34;51.70;99201.37;4503411;31;34912;-91
2022/11/25 03:55:37;;;;;;;;;;;;;;;9.91;50.01;99200.63;4512142;31;33889;-86
2022/11/25 03:58:04;;;;;;;;;;;;;;;10.11;49.13;99194.03;4509633;31;34258;-88
2022/11/25 04:00:32;;;;;;;;;;;;;;;10.80;47.09;99196.75;4515280;31;33333;-85
2022/11/25 04:03:01;;;;;;;;;;;;;;;10.96;46.03;99202.13;4511682;31;34099;-87
2022/11/25 04:05:29;;;;;;;;;;;;;;;10.61;46.18;99201.69;4503016;31;35309;-86
2022/11/25 04:07:56;;;;;;;;;;;;;;;10.75;45.52;99206.16;4507429;31;34230;-90
2022/11/25 04:10:25;;;;;;;;;;;;;;;10.43;45.42;99204.03;4503846;31;34140;-88
2022/11/25 04:12:52;;;;;;;;;;;;;;;10.65;45.12;99211.25;4516179;31;33680;-89
2022/11/25 04:15:20;;;;;;;;;;;;;;;11.22;43.78;99209.34;4514452;31;34395;-88
2022/11/25 04:17:48;;;;;;;;;;;;;;;10.67;44.57;99209.53;4507533;31;35096;-86
2022/11/25 04:20:15;;;;;;;;;;;;;;;10.25;45.97;99215.00;4501354;31;33156;-90
2022/11/25 04:22:43;;;;;;;;;;;;;;;9.75;47.24;99217.63;4502519;31;34319;-87
2022/11/25 04:25:11;;;;;;;;;;;;;;;10.54;45.62;99218.00;4515085;31;33993;-89
2022/11/25 04:27:38;;;;;;;;;;;;;;;10.45;45.32;99216.19;4509546;31;33579;-88
2022/11/25 04:30:06;;;;;;;;;;;;;;;10.73;44.43;99220.84;4505495;31;33121;-88
2022/11/25 04:32:35;;;;;;;;;;;;;;;10.71;44.34;99219.09;4508626;31;34303;-85
2022/11/25 04:35:03;;;;;;;;;;;;;;;10.40;44.82;99232.50;4501178;31;34390;-90
2022/11/25 04:37:31;;;;;;;;;;;;;;;10.68;44.27;99231.13;4512461;31;34270;-86
2022/11/25 04:39:58;;;;;;;;;;;;;;;9.62;47.05;99246.72;4513056;31;33367;-86
2022/11/25 04:42:32;;;;;;;;;;;;;;;10.49;45.03;99248.16;4511595;31;34194;-91
2022/11/25 04:44:59;;;;;;;;;;;;;;;10.51;44.80;99256.84;4502073;31;35364;-86
2022/11/25 04:47:47;;;;;;;;;;;;;;;10.71;44.38;99257.13;4506276;31;34123;-90
2022/11/25 04:50:16;;;;;;;;;;;;;;;10.73;44.02;99268.41;4511901;31;33423;-91
2022/11/25 04:52:46;;;;;;;;;;;;;;;10.82;43.55;99271.09;4512501;31;34114;-91
2022/11/25 04:55:13;;;;;;;;;;;;;;;10.91;43.48;99275.53;4500801;31;33874;-90
2022/11/25 04:57:44;;;;;;;;;;;;;;;11.06;43.09;99280.03;4511313;31;34077;-86
2022/11/25 05:00:15;;;;;;;;;;;;;;;10.97;43.00;99278.22;4508172;31;33422;-86
2022/11/25 05:02:43;;;;;;;;;;;;;;;10.76;43.28;99288.28;4505199;31;34892;-88
2022/11/25 05:05:11;;;;;;;;;;;;;;;10.88;43.14;99278.97;4489794;31;34080;-86
2022/11/25 05:07:39;;;;;;;;;;;;;;;10.80;43.07;99280.59;4509458;31;34017;-89
2022/11/25 05:10:06;;;;;;;;;;;;;;;10.79;42.93;99291.78;4499681;31;33247;-91
2022/11/25 05:12:35;;;;;;;;;;;;;;;10.93;42.96;99292.87;4498368;31;34556;-88
2022/11/25 05:15:04;;;;;;;;;;;;;;;11.03;42.76;99296.47;4499535;31;34452;-88
2022/11/25 05:17:32;;;;;;;;;;;;;;;10.87;42.92;99297.09;4507942;31;34229;-87
2022/11/25 05:20:00;;;;;;;;;;;;;;;10.73;43.24;99298.66;4501351;31;33459;-91
2022/11/25 05:22:28;;;;;;;;;;;;;;;10.79;42.98;99298.72;4506475;31;33614;-86
2022/11/25 05:24:56;;;;;;;;;;;;;;;10.83;42.74;99303.09;4510786;31;34456;-88
2022/11/25 05:27:24;;;;;;;;;;;;;;;11.09;42.39;99299.13;4496795;31;34758;-87
2022/11/25 05:29:51;;;;;;;;;;;;;;;11.02;42.33;99302.47;4497388;31;33018;-89
2022/11/25 05:32:22;;;;;;;;;;;;;;;10.97;42.33;99309.34;4503075;31;34605;-89
2022/11/25 05:34:51;;;;;;;;;;;;;;;10.72;42.55;99315.94;4515614;31;33960;-89
2022/11/25 05:37:18;;;;;;;;;;;;;;;10.75;42.74;99322.84;4514305;31;34068;-88
2022/11/25 05:39:51;;;;;;;;;;;;;;;10.66;42.97;99324.47;4515743;31;32741;-88
2022/11/25 05:42:19;;;;;;;;;;;;;;;10.71;42.81;99321.94;4501760;31;33696;-91
2022/11/25 05:44:47;;;;;;;;;;;;;;;10.73;42.69;99329.75;4511497;31;33775;-87
2022/11/25 05:47:16;;;;;;;;;;;;;;;10.82;42.73;99322.09;4515463;31;34184;-88
2022/11/25 05:49:44;;;;;;;;;;;;;;;10.95;42.48;99334.41;4515425;31;33907;-87
2022/11/25 05:52:11;;;;;;;;;;;;;;;11.12;42.07;99332.91;4507485;31;34716;-86
2022/11/25 05:54:39;;;;;;;;;;;;;;;11.04;42.15;99334.53;4508526;31;34450;-87
2022/11/25 05:57:06;;;;;;;;;;;;;;;11.12;41.75;99330.28;4485915;31;34873;-91
2022/11/25 05:59:37;;;;;;;;;;;;;;;11.02;42.21;99345.72;4506051;31;33556;-89
2022/11/25 06:02:05;;;;;;;;;;;;;;;10.87;42.45;99343.78;4508919;31;34301;-87
2022/11/25 06:04:33;;;;;;;;;;;;;;;10.95;42.20;99343.06;4507617;31;35683;-87
2022/11/25 06:07:03;;;;;;;;;;;;;;;10.85;42.40;99342.91;4503518;31;34088;-89
2022/11/25 06:09:30;;;;;;;;;;;;;;;10.85;42.23;99350.69;4506662;31;33349;-88
2022/11/25 06:11:58;;;;;;;;;;;;;;;10.95;42.10;99353.44;4502657;31;35040;-88
2022/11/25 06:14:25;;;;;;;;;;;;;;;11.01;41.73;99352.63;4501195;31;34704;-87
2022/11/25 06:16:52;;;;;;;;;;;;;;;10.92;41.82;99353.37;4500041;31;34390;-90
2022/11/25 06:19:20;;;;;;;;;;;;;;;10.87;42.20;99360.25;4500201;31;33237;-88
2022/11/25 06:21:47;;;;;;;;;;;;;;;10.94;42.18;99361.19;4499767;31;34801;-90
2022/11/25 06:24:14;;;;;;;;;;;;;;;10.83;42.47;99360.16;4499242;31;35326;-89
2022/11/25 06:26:43;;;;;;;;;;;;;;;10.87;42.61;99364.53;4500287;31;34953;-87
2022/11/25 06:29:10;;;;;;;;;;;;;;;10.83;42.59;99373.97;4508670;31;34049;-86
2022/11/25 06:31:38;;;;;;;;;;;;;;;10.94;42.41;99382.78;4503672;31;34090;-85
2022/11/25 06:34:08;;;;;;;;;;;;;;;10.92;42.62;99383.63;4502401;31;35320;-89
2022/11/25 06:36:35;;;;;;;;;;;;;;;11.00;42.51;99382.03;4511126;31;33918;-88
2022/11/25 06:39:02;;;;;;;;;;;;;;;11.07;42.39;99383.00;4513067;31;32728;-87
2022/11/25 06:41:29;;;;;;;;;;;;;;;10.86;42.64;99379.22;4509047;31;35123;-87
2022/11/25 06:43:56;;;;;;;;;;;;;;;10.93;42.56;99383.66;4510800;31;34369;-88
2022/11/25 06:46:24;;;;;;;;;;;;;;;11.03;42.56;99386.41;4514826;31;33718;-88
2022/11/25 06:48:52;;;;;;;;;;;;;;;11.03;42.75;99386.41;4504415;31;33085;-87
2022/11/25 06:51:19;;;;;;;;;;;;;;;11.08;42.69;99390.78;4506991;31;33957;-86
2022/11/25 06:53:46;;;;;;;;;;;;;;;10.79;43.48;99392.94;4504542;31;35282;-90
2022/11/25 06:56:15;;;;;;;;;;;;;;;10.88;43.44;99395.69;4504767;31;34854;-89
2022/11/25 06:58:43;;;;;;;;;;;;;;;10.86;43.96;99399.09;4500226;31;33151;-87
2022/11/25 07:01:14;;;;;;;;;;;;;;;11.10;43.52;99394.28;4498330;31;35040;-87
2022/11/25 07:03:41;;;;;;;;;;;;;;;10.86;44.09;99393.91;4506058;31;34461;-87
2022/11/25 07:06:10;;;;;;;;;;;;;;;11.36;43.13;99402.41;4503418;31;34011;-89
2022/11/25 07:08:37;;;;;;;;;;;;;;;10.92;44.40;99412.19;4507366;31;33308;-89
2022/11/25 07:11:05;;;;;;;;;;;;;;;11.06;44.39;99408.06;4507950;31;35084;-84
2022/11/25 07:13:33;;;;;;;;;;;;;;;11.03;44.90;99420.13;4508908;31;35190;-90
2022/11/25 07:16:03;;;;;;;;;;;;;;;10.94;45.37;99421.69;4498933;31;34557;-85
2022/11/25 07:18:34;;;;;;;;;;;;;;;11.13;44.98;99415.06;4499179;31;34178;-87
2022/11/25 07:21:05;;;;;;;;;;;;;;;11.24;44.97;99420.41;4498767;31;34242;-85
2022/11/25 07:23:33;;;;;;;;;;;;;;;11.38;44.89;99416.28;4498711;31;35228;-87
2022/11/25 07:26:01;;;;;;;;;;;;;;;10.38;48.35;99419.09;4497417;31;34912;-84
2022/11/25 07:28:28;;;;;;;;;;;;;;;11.19;46.82;99428.13;4498890;31;33591;-85
2022/11/25 07:31:02;;;;;;;;;;;;;;;10.78;48.24;99419.72;4498866;31;33848;-88
2022/11/25 07:33:50;;;;;;;;;;;;;;;11.20;47.04;99423.81;4498669;31;34196;-87
2022/11/25 07:36:17;;;;;;;;;;;;;;;11.25;46.94;99419.59;4498704;31;34127;-85
2022/11/25 07:38:44;;;;;;;;;;;;;;;11.57;46.44;99420.00;4498770;31;33143;-86
2022/11/25 07:41:15;;;;;;;;;;;;;;;10.99;47.84;99423.53;4498515;31;34083;-88
2022/11/25 07:43:43;;;;;;;;;;;;;;;10.49;49.26;99424.44;4497355;31;34040;-89
2022/11/25 07:46:16;;;;;;;;;;;;;;;11.33;47.62;99428.34;4498637;31;34186;-86
2022/11/25 07:48:50;;;;;;;;;;;;;;;10.95;48.76;99428.66;4498194;31;33387;-84
2022/11/25 07:51:47;;;;;;;;;;;;;;;11.43;47.76;99430.19;4497239;31;35652;-90
2022/11/25 07:54:14;;;;;;;;;;;;;;;11.20;48.34;99426.41;4488268;31;35241;-84
2022/11/25 07:56:43;;;;;;;;;;;;;;;11.32;48.03;99430.91;4502466;31;34344;-84
2022/11/25 07:59:11;;;;;;;;;;;;;;;11.37;48.04;99431.84;4506678;31;33761;-86
2022/11/25 08:01:39;;;;;;;;;;;;;;;10.60;50.34;99432.38;4500245;31;34744;-92
2022/11/25 08:04:07;;;;;;;;;;;;;;;10.67;49.87;99436.84;4498917;31;34085;-86
2022/11/25 08:06:36;;;;;;;;;;;;;;;11.04;49.02;99445.22;4510250;31;34935;-89
2022/11/25 08:09:03;;;;;;;;;;;;;;;11.02;49.21;99439.13;4509086;31;33425;-88
2022/11/25 08:11:31;;;;;;;;;;;;;;;11.16;48.84;99441.06;4512487;31;34967;-86
2022/11/25 08:13:59;;;;;;;;;;;;;;;10.89;49.61;99445.84;4514006;31;35161;-87
2022/11/25 08:16:27;;;;;;;;;;;;;;;11.19;48.58;99441.12;4513772;31;34805;-89
2022/11/25 08:18:54;;;;;;;;;;;;;;;11.08;49.00;99437.50;4513781;31;34310;-86
2022/11/25 08:21:22;;;;;;;;;;;;;;;11.19;48.89;99446.31;4514097;31;33733;-86
2022/11/25 08:23:51;;;;;;;;;;;;;;;11.32;48.95;99449.94;4514121;31;34165;-89
2022/11/25 08:26:19;;;;;;;;;;;;;;;11.62;47.98;99448.62;4513980;31;33963;-86
2022/11/25 08:28:47;;;;;;;;;;;;;;;11.06;48.92;99469.44;4513106;31;34323;-89
2022/11/25 08:31:18;;;;;;;;;;;;;;;10.16;51.98;99464.41;4513947;31;34184;-89
2022/11/25 08:33:46;;;;;;;;;;;;;;;10.91;50.16;99460.59;4513750;31;34037;-89
2022/11/25 08:36:14;;;;;;;;;;;;;;;10.87;50.27;99464.00;4513564;31;33887;-88
2022/11/25 08:38:41;;;;;;;;;;;;;;;11.20;49.25;99453.22;4513750;31;34223;-86
2022/11/25 08:41:10;;;;;;;;;;;;;;;11.08;50.04;99457.38;4513454;31;35248;-87
2022/11/25 08:43:37;;;;;;;;;;;;;;;11.24;49.82;99455.88;4513767;31;35191;-89
2022/11/25 08:46:13;;;;;;;;;;;;;;;10.62;51.38;99460.09;4501837;31;32917;-87
2022/11/25 08:48:40;;;;;;;;;;;;;;;9.92;53.71;99458.75;4514542;31;34272;-87
2022/11/25 08:51:28;;;;;;;;;;;;;;;9.87;53.80;99462.97;4514670;31;34257;-89
2022/11/25 08:53:55;;;;;;;;;;;;;;;10.57;52.60;99463.44;4515856;31;34015;-88
2022/11/25 08:56:22;;;;;;;;;;;;;;;10.48;52.57;99461.56;4515118;31;35058;-87
2022/11/25 08:58:53;;;;;;;;;;;;;;;10.93;51.01;99463.19;4514936;31;33302;-86
2022/11/25 09:01:21;;;;;;;;;;;;;;;11.02;51.30;99455.53;4515988;31;35171;-88
2022/11/25 09:03:49;;;;;;;;;;;;;;;10.92;51.85;99456.28;4514430;31;34927;-89
2022/11/25 09:06:17;;;;;;;;;;;;;;;11.03;51.46;99464.22;4515956;31;33753;-89
2022/11/25 09:08:44;;;;;;;;;;;;;;;10.86;52.04;99462.22;4514671;31;33438;-89
2022/11/25 09:11:11;;;;;;;;;;;;;;;10.47;53.02;99462.41;4515882;31;35070;-89
2022/11/25 09:13:39;;;;;;;;;;;;;;;11.12;51.50;99464.34;4515949;31;34965;-86
2022/11/25 09:16:07;;;;;;;;;;;;;;;10.73;52.76;99462.88;4515874;31;34100;-88
2022/11/25 09:18:35;;;;;;;;;;;;;;;11.31;51.34;99474.16;4515666;31;33539;-86
2022/11/25 09:21:07;;;;;;;;;;;;;;;11.67;50.47;99466.03;4515662;31;34003;-86
2022/11/25 09:23:35;;;;;;;;;;;;;;;10.42;53.85;99474.44;4515791;31;34235;-88
2022/11/25 09:26:02;;;;;;;;;;;;;;;11.15;52.45;99474.78;4514460;31;34279;-87
2022/11/25 09:28:30;;;;;;;;;;;;;;;11.18;52.41;99470.53;4515663;31;33283;-90
2022/11/25 09:30:57;;;;;;;;;;;;;;;11.22;51.93;99470.56;4515918;31;33927;-88
2022/11/25 09:33:24;;;;;;;;;;;;;;;11.11;52.27;99460.91;4515565;31;34358;-89
2022/11/25 09:35:51;;;;;;;;;;;;;;;11.90;50.23;99457.69;4515429;31;34156;-89
2022/11/25 09:38:19;;;;;;;;;;;;;;;11.56;51.51;99464.12;4515667;31;33356;-89
2022/11/25 09:40:55;;;;;;;;;;;;;;;10.74;53.77;99459.44;4515580;31;33911;-86
2022/11/25 09:46:43;;;;;;;;;;;;;;;12.23;49.79;99451.09;4514398;31;33932;-89
2022/11/25 09:49:10;;;;;;;;;;;;;;;12.25;49.66;99459.81;4514484;31;34211;-89
2022/11/25 09:51:47;;;;;;;;;;;;;;;12.40;49.09;99457.34;4515375;31;35180;-86
2022/11/25 09:54:16;;;;;;;;;;;;;;;11.92;50.67;99448.16;4515580;31;34434;-86
2022/11/25 09:57:03;;;;;;;;;;;;;;;11.52;52.11;99446.78;4515421;31;34070;-86
2022/11/25 09:59:31;;;;;;;;;;;;;;;11.51;51.76;99447.59;4504770;31;33742;-89
2022/11/25 10:02:02;;;;;;;;;;;;;;;11.89;50.90;99446.41;4515586;31;34341;-87
2022/11/25 10:04:32;;;;;;;;;;;;;;;11.50;52.14;99451.94;4514057;31;34171;-86
2022/11/25 10:07:00;;;;;;;;;;;;;;;12.08;50.80;99452.66;4514240;31;34800;-85
2022/11/25 10:09:29;;;;;;;;;;;;;;;12.65;50.02;99454.13;4513948;31;33567;-88
2022/11/25 10:12:22;;;;;;;;;;;;;;;11.38;53.15;99463.03;4514052;31;34234;-90
2022/11/25 10:14:54;;;;;;;;;;;;;;;11.04;54.28;99464.25;4512411;31;33547;-88
2022/11/25 10:17:22;;;;;;;;;;;;;;;12.32;50.96;99451.22;4513903;31;35024;-87
2022/11/25 10:19:59;;;;;;;;;;;;;;;12.07;51.12;99453.53;4515377;31;33224;-89
2022/11/25 10:22:31;;;;;;;;;;;;;;;11.95;51.93;99453.41;4514311;31;33638;-86
2022/11/25 10:24:59;;;;;;;;;;;;;;;12.22;51.03;99460.63;4515338;31;34375;-86
2022/11/25 10:27:45;;;;;;;;;;;;;;;11.68;52.82;99457.38;4513929;31;33952;-87
2022/11/25 10:30:18;;;;;;;;;;;;;;;12.70;50.31;99458.50;4515240;31;33459;-89
2022/11/25 10:33:06;;;;;;;;;;;;;;;12.38;50.49;99454.72;4515147;31;34194;-89
2022/11/25 10:35:34;;;;;;;;;;;;;;;12.83;49.70;99455.13;4504310;31;33782;-89
2022/11/25 10:38:02;;;;;;;;;;;;;;;11.83;52.14;99451.53;4514112;31;35263;-86
2022/11/25 10:40:30;;;;;;;;;;;;;;;11.42;53.49;99457.00;4514006;31;34122;-86
2022/11/25 10:42:57;;;;;;;;;;;;;;;11.98;52.20;99456.03;4515101;31;34957;-89
2022/11/25 10:45:28;;;;;;;;;;;;;;;12.50;50.68;99456.59;4513543;31;34044;-88
2022/11/25 10:48:15;;;;;;;;;;;;;;;12.62;50.17;99455.84;4513816;31;35106;-89
2022/11/25 10:51:02;;;;;;;;;;;;;;;11.99;52.20;99459.50;4513954;31;33126;-88
2022/11/25 10:53:30;;;;;;;;;;;;;;;12.90;50.24;99469.94;4504066;31;34233;-90
2022/11/25 10:56:04;;;;;;;;;;;;;;;12.32;51.52;99472.00;4514918;31;33982;-89
2022/11/25 10:58:36;;;;;;;;;;;;;;;11.64;53.24;99476.38;4513992;31;33616;-89
2022/11/25 11:01:13;;;;;;;;;;;;;;;11.33;54.82;99488.03;4513224;31;34178;-89
2022/11/25 11:03:42;;;;;;;;;;;;;;;12.07;52.56;99476.91;4515096;31;33877;-89
2022/11/25 11:06:28;;;;;;;;;;;;;;;12.61;50.90;99483.59;4514911;31;34651;-89
2022/11/25 11:08:55;;;;;;;;;;;;;;;11.96;52.63;99473.31;4514727;31;34810;-86
2022/11/25 11:11:23;;;;;;;;;;;;;;;12.04;52.45;99476.00;4515081;31;33219;-87
2022/11/25 11:13:57;;;;;;;;;;;;;;;12.16;52.29;99470.97;4513391;31;34858;-89
2022/11/25 11:16:29;;;;;;;;;;;;;;;11.57;53.92;99476.25;4514042;31;33724;-89
2022/11/25 11:18:56;;;;;;;;;;;;;;;11.39;54.27;99485.53;4513540;31;34146;-89
2022/11/25 11:21:33;;;;;;;;;;;;;;;10.61;56.66;99486.88;4513468;31;33599;-86
2022/11/25 11:24:01;;;;;;;;;;;;;;;11.65;54.38;99492.81;4513969;31;34976;-90
2022/11/25 11:26:30;;;;;;;;;;;;;;;12.53;51.60;99481.75;4513418;31;34539;-89
2022/11/25 11:29:03;;;;;;;;;;;;;;;12.52;51.37;99480.88;4514701;31;34141;-89
2022/11/25 11:31:35;;;;;;;;;;;;;;;13.15;49.88;99473.63;4513351;31;32882;-87
2022/11/25 11:34:18;;;;;;;;;;;;;;;13.13;49.82;99480.53;4513547;31;35073;-89
2022/11/25 11:36:55;;;;;;;;;;;;;;;12.86;50.25;99482.06;4514560;31;35241;-87
2022/11/25 11:39:22;;;;;;;;;;;;;;;13.28;49.18;99482.41;4513470;31;34041;-90
2022/11/25 11:41:49;;;;;;;;;;;;;;;12.91;50.47;99475.16;4514554;31;34027;-89
2022/11/25 11:44:19;;;;;;;;;;;;;;;12.84;50.59;99480.28;4514207;31;34419;-86
2022/11/25 11:46:59;;;;;;;;;;;;;;;13.10;50.10;99481.38;4514516;31;34387;-87
2022/11/25 11:49:43;;;;;;;;;;;;;;;12.99;50.35;99482.16;4514351;31;34250;-86
2022/11/25 11:52:23;;;;;;;;;;;;;;;13.37;49.71;99474.66;4514515;31;34273;-88
2022/11/25 11:54:58;;;;;;;;;;;;;;;14.25;47.85;99470.72;4514248;31;33710;-86
2022/11/25 11:57:29;;;;;;;;;;;;;;;14.35;47.21;99475.09;4513298;31;34050;-89
2022/11/25 11:59:59;;;;;;;;;;;;;;;14.83;45.96;99468.25;4512981;31;33926;-88
2022/11/25 12:02:39;;;;;;;;;;;;;;;14.43;46.78;99462.94;4513002;31;34410;-89
2022/11/25 12:05:09;;;;;;;;;;;;;;;14.25;47.23;99457.69;4514101;31;34371;-88
2022/11/25 12:07:39;;;;;;;;;;;;;;;13.66;48.98;99461.81;4514415;31;34170;-90
2022/11/25 12:10:09;;;;;;;;;;;;;;;13.79;48.40;99461.00;4513259;31;34795;-86
2022/11/25 12:12:59;;;;;;;;;;;;;;;13.53;49.21;99463.47;4512554;31;33141;-89
2022/11/25 12:15:31;;;;;;;;;;;;;;;13.90;48.32;99462.78;4484151;31;34858;-89
2022/11/25 12:18:04;;;;;;;;;;;;;;;14.55;46.60;99455.19;4512596;31;35327;-89
2022/11/25 12:20:33;;;;;;;;;;;;;;;14.62;46.71;99455.16;4514427;31;34193;-88
2022/11/25 12:23:00;;;;;;;;;;;;;;;14.73;46.47;99461.25;4514846;31;34105;-89
2022/11/25 12:25:33;;;;;;;;;;;;;;;14.59;46.69;99458.66;4516511;31;34041;-90
2022/11/25 12:28:02;;;;;;;;;;;;;;;14.63;46.60;99449.09;4514613;31;34503;-90
2022/11/25 12:30:59;;;;;;;;;;;;;;;14.58;46.66;99465.63;4514654;31;34297;-89
2022/11/25 12:33:34;;;;;;;;;;;;;;;14.58;46.91;99460.41;4504470;31;34250;-86
2022/11/25 12:36:03;;;;;;;;;;;;;;;14.96;45.97;99451.69;4516165;31;33987;-89
2022/11/25 12:38:37;;;;;;;;;;;;;;;14.76;45.66;99456.06;4515106;31;34378;-90
2022/11/25 12:41:12;;;;;;;;;;;;;;;15.00;45.50;99461.28;4514466;31;34280;-86
2022/11/25 12:43:39;;;;;;;;;;;;;;;15.27;44.95;99454.31;4514674;31;33351;-86
2022/11/25 12:46:10;;;;;;;;;;;;;;;15.43;44.42;99450.78;4516137;31;35090;-89
2022/11/25 12:48:39;;;;;;;;;;;;;;;14.59;45.88;99449.09;4514981;31;34090;-89
2022/11/25 12:51:14;;;;;;;;;;;;;;;14.92;45.57;99449.94;4514646;31;34013;-89
2022/11/25 12:53:57;;;;;;;;;;;;;;;15.09;45.51;99445.59;4514612;31;33941;-90
2022/11/25 12:56:26;;;;;;;;;;;;;;;15.77;43.98;99448.97;4515890;31;34838;-89
2022/11/25 12:59:29;;;;;;;;;;;;;;;15.00;45.65;99443.00;4514487;31;34176;-86
2022/11/25 13:02:09;;;;;;;;;;;;;;;15.40;44.66;99448.16;4450398;32;33776;-86
2022/11/25 13:04:39;;;;;;;;;;;;;;;15.46;44.12;99444.69;4505794;31;33169;-90
2022/11/25 13:07:12;;;;;;;;;;;;;;;15.90;43.39;99447.16;4516048;31;34415;-88
2022/11/25 13:09:58;;;;;;;;;;;;;;;15.38;43.97;99435.97;4515580;31;34140;-87
2022/11/25 13:12:44;;;;;;;;;;;;;;;15.41;43.50;99434.22;4515813;31;33757;-89